createdAt,value
2019-03-04T00:05:36.604Z,952
2019-03-04T00:15:40.028Z,952
2019-03-04T00:25:43.441Z,951.9
2019-03-04T00:35:46.890Z,952.2
2019-03-04T00:45:50.350Z,952.2
2019-03-04T00:55:53.824Z,952.2
2019-03-04T01:05:57.253Z,952.3
2019-03-04T01:16:00.716Z,952.1
2019-03-04T01:26:04.145Z,952
2019-03-04T01:36:07.567Z,952.3
2019-03-04T01:46:10.998Z,951.8
2019-03-04T01:56:14.481Z,951.9
2019-03-04T02:06:17.877Z,951.7
2019-03-04T02:16:21.294Z,951.4
2019-03-04T02:26:24.744Z,951.2
2019-03-04T02:36:28.208Z,951.2
2019-03-04T02:46:31.679Z,950.9
2019-03-04T02:56:36.170Z,951.1
2019-03-04T03:06:39.634Z,950.9
2019-03-04T03:16:43.083Z,951.2
2019-03-04T03:26:46.561Z,950.7
2019-03-04T03:36:50.009Z,950.7
2019-03-04T03:46:53.469Z,950.1
2019-03-04T03:56:56.875Z,949.9
2019-03-04T04:07:00.340Z,949.7
2019-03-04T04:17:03.774Z,949.5
2019-03-04T04:27:07.240Z,949.2
2019-03-04T04:37:10.694Z,949.1
2019-03-04T04:47:14.133Z,948.6
2019-03-04T04:57:17.556Z,948.7
2019-03-04T05:07:20.992Z,948.5
2019-03-04T05:17:24.540Z,948.3
2019-03-04T05:27:28.000Z,948.3
2019-03-04T05:37:31.464Z,948.1
2019-03-04T05:47:34.897Z,948
2019-03-04T05:57:38.381Z,947.8
2019-03-04T06:07:41.830Z,947.5
2019-03-04T06:17:45.238Z,947.5
2019-03-04T06:27:48.661Z,947.4
2019-03-04T06:37:52.070Z,947.2
2019-03-04T06:47:55.515Z,946.2
2019-03-04T06:57:58.939Z,946.4
2019-03-04T07:08:02.379Z,947
2019-03-04T07:18:05.806Z,947.2
2019-03-04T07:28:09.254Z,947.1
2019-03-04T07:38:12.674Z,946.7
2019-03-04T07:48:16.102Z,946.9
2019-03-04T07:58:20.530Z,948.1
2019-03-04T08:08:24.035Z,946.4
2019-03-04T08:18:27.469Z,953.1
2019-03-04T08:28:30.927Z,953
2019-03-04T08:38:34.380Z,952.8
2019-03-04T08:48:37.800Z,952.9
2019-03-04T08:58:41.580Z,953.8
2019-03-04T09:08:45.018Z,955.2
2019-03-04T09:18:48.446Z,949.1
2019-03-04T09:28:51.888Z,950.2
2019-03-04T09:38:55.355Z,950.7
2019-03-04T09:48:58.813Z,951.6
2019-03-04T09:59:02.256Z,952.1
2019-03-04T10:09:05.715Z,952.8
2019-03-04T10:19:09.145Z,952.8
2019-03-04T10:29:12.574Z,953
2019-03-04T10:39:22.895Z,952.4
2019-03-04T10:49:26.344Z,951.7
2019-03-04T10:59:29.772Z,950.9
2019-03-04T11:09:33.203Z,951
2019-03-04T11:19:36.610Z,950.8
2019-03-04T11:29:40.270Z,950.1
2019-03-04T11:39:43.706Z,950.2
2019-03-04T11:49:47.109Z,950.7
2019-03-04T11:59:50.570Z,950.3
2019-03-04T12:09:54.007Z,950.8
2019-03-04T12:19:57.410Z,950.2
2019-03-04T12:30:01.340Z,950.1
2019-03-04T12:40:04.812Z,950.2
2019-03-04T12:50:08.280Z,949.8
2019-03-04T13:00:11.721Z,949.4
2019-03-04T13:10:15.168Z,949.4
2019-03-04T13:20:18.610Z,949.3
2019-03-04T13:30:22.035Z,948.8
2019-03-04T13:40:25.477Z,948.7
2019-03-04T13:50:28.935Z,948.9
2019-03-04T14:00:32.410Z,948
2019-03-04T14:10:36.060Z,954.8
2019-03-04T14:20:39.510Z,954.7
2019-03-04T14:30:42.973Z,954.7
2019-03-04T14:40:46.377Z,948
2019-03-04T14:50:49.777Z,948.7
2019-03-04T15:00:53.215Z,948.3
2019-03-04T15:10:56.704Z,955.3
2019-03-04T15:21:00.377Z,955
2019-03-04T15:31:03.831Z,948
2019-03-04T15:41:07.244Z,948.2
2019-03-04T15:51:10.692Z,948.5
2019-03-04T16:01:14.124Z,948.6
2019-03-04T16:11:17.571Z,949.1
2019-03-04T16:21:21.016Z,949.7
2019-03-04T16:31:24.446Z,950.2
2019-03-04T16:41:27.881Z,950.2
2019-03-04T16:51:31.309Z,950.8
2019-03-04T17:01:34.772Z,951.4
2019-03-04T17:11:38.242Z,951.5
2019-03-04T17:21:41.668Z,951.6
2019-03-04T17:31:45.104Z,952.2
2019-03-04T17:41:48.564Z,952.5
2019-03-04T17:51:52.020Z,952.8
2019-03-04T18:01:55.470Z,953.1
2019-03-04T18:11:58.888Z,954.1
2019-03-04T18:22:02.332Z,954.3
2019-03-04T18:32:05.776Z,954.1
2019-03-04T18:42:09.214Z,953.7
2019-03-04T18:52:12.606Z,954.1
2019-03-04T19:02:16.043Z,954.1
2019-03-04T19:12:19.456Z,954.1
2019-03-04T19:22:23.908Z,954.5
2019-03-04T19:32:27.325Z,954.2
2019-03-04T19:42:30.762Z,954.3
2019-03-04T19:52:34.183Z,954.6
2019-03-04T20:02:37.582Z,954.5
2019-03-04T20:12:40.989Z,954.3
2019-03-04T20:22:44.664Z,954.5
2019-03-04T20:32:48.111Z,955.6
2019-03-04T20:42:51.555Z,958
2019-03-04T20:52:54.985Z,958
2019-03-04T21:02:58.467Z,957.6
2019-03-04T21:13:01.905Z,957.6
2019-03-04T21:23:05.369Z,957.3
2019-03-04T21:33:08.812Z,957.3
2019-03-04T21:43:12.290Z,957.3
2019-03-04T21:53:15.741Z,957.7
2019-03-04T22:03:19.197Z,958.7
2019-03-04T22:13:22.718Z,958.7
2019-03-04T22:23:26.203Z,958.7
2019-03-04T22:33:29.676Z,958.8
2019-03-04T22:43:34.173Z,958.5
2019-03-04T22:53:37.659Z,958.1
2019-03-04T23:03:41.077Z,958.2
2019-03-04T23:13:44.545Z,958.3
2019-03-04T23:23:47.978Z,958.4
2019-03-04T23:33:51.409Z,958.2
2019-03-04T23:43:54.848Z,958.2
2019-03-04T23:53:58.282Z,958.7
